sensor_id;sensor_type;location;lat;lon;timestamp;P1;durP1;ratioP1;P2;durP2;ratioP2
75025;SDS011;63591;50.080;8.286;2023-01-29T00:00:49;5.70;;;3.03;;
75025;SDS011;63591;50.080;8.286;2023-01-29T00:03:15;5.73;;;2.90;;
75025;SDS011;63591;50.080;8.286;2023-01-29T00:05:40;5.22;;;2.60;;
75025;SDS011;63591;50.080;8.286;2023-01-29T00:08:05;5.72;;;3.10;;
75025;SDS011;63591;50.080;8.286;2023-01-29T00:10:30;4.93;;;3.00;;
75025;SDS011;63591;50.080;8.286;2023-01-29T00:12:56;6.77;;;2.97;;
75025;SDS011;63591;50.080;8.286;2023-01-29T00:15:21;7.17;;;3.17;;
75025;SDS011;63591;50.080;8.286;2023-01-29T00:17:46;6.00;;;3.30;;
75025;SDS011;63591;50.080;8.286;2023-01-29T00:20:12;6.30;;;3.27;;
75025;SDS011;63591;50.080;8.286;2023-01-29T00:22:37;6.27;;;3.20;;
75025;SDS011;63591;50.080;8.286;2023-01-29T00:25:02;5.30;;;3.20;;
75025;SDS011;63591;50.080;8.286;2023-01-29T00:27:28;5.35;;;2.92;;
75025;SDS011;63591;50.080;8.286;2023-01-29T00:29:53;5.75;;;3.15;;
75025;SDS011;63591;50.080;8.286;2023-01-29T00:32:36;6.95;;;3.05;;
75025;SDS011;63591;50.080;8.286;2023-01-29T00:35:02;5.20;;;3.13;;
75025;SDS011;63591;50.080;8.286;2023-01-29T00:37:28;5.55;;;3.13;;
75025;SDS011;63591;50.080;8.286;2023-01-29T00:39:53;4.97;;;2.97;;
75025;SDS011;63591;50.080;8.286;2023-01-29T00:42:19;6.43;;;3.30;;
75025;SDS011;63591;50.080;8.286;2023-01-29T00:45:02;5.88;;;3.20;;
75025;SDS011;63591;50.080;8.286;2023-01-29T00:47:28;5.15;;;2.97;;
75025;SDS011;63591;50.080;8.286;2023-01-29T00:50:01;4.90;;;2.90;;
75025;SDS011;63591;50.080;8.286;2023-01-29T00:52:28;5.55;;;3.10;;
75025;SDS011;63591;50.080;8.286;2023-01-29T00:54:55;5.63;;;3.10;;
75025;SDS011;63591;50.080;8.286;2023-01-29T00:57:22;6.00;;;3.20;;
75025;SDS011;63591;50.080;8.286;2023-01-29T00:59:49;4.80;;;2.90;;
75025;SDS011;63591;50.080;8.286;2023-01-29T01:02:14;5.43;;;3.10;;
75025;SDS011;63591;50.080;8.286;2023-01-29T01:04:58;4.90;;;3.10;;
75025;SDS011;63591;50.080;8.286;2023-01-29T01:07:26;5.28;;;3.13;;
75025;SDS011;63591;50.080;8.286;2023-01-29T01:09:51;5.30;;;3.10;;
75025;SDS011;63591;50.080;8.286;2023-01-29T01:12:35;5.88;;;3.20;;
75025;SDS011;63591;50.080;8.286;2023-01-29T01:15:00;8.03;;;3.73;;
75025;SDS011;63591;50.080;8.286;2023-01-29T01:17:25;6.77;;;3.50;;
75025;SDS011;63591;50.080;8.286;2023-01-29T01:19:51;6.07;;;3.80;;
75025;SDS011;63591;50.080;8.286;2023-01-29T01:22:16;5.73;;;3.70;;
75025;SDS011;63591;50.080;8.286;2023-01-29T01:24:41;6.15;;;3.55;;
75025;SDS011;63591;50.080;8.286;2023-01-29T01:27:07;5.63;;;3.40;;
75025;SDS011;63591;50.080;8.286;2023-01-29T01:29:32;6.67;;;3.57;;
75025;SDS011;63591;50.080;8.286;2023-01-29T01:31:58;5.87;;;3.67;;
75025;SDS011;63591;50.080;8.286;2023-01-29T01:34:24;7.47;;;3.88;;
75025;SDS011;63591;50.080;8.286;2023-01-29T01:36:51;6.72;;;3.60;;
75025;SDS011;63591;50.080;8.286;2023-01-29T01:39:16;6.93;;;3.57;;
75025;SDS011;63591;50.080;8.286;2023-01-29T01:41:42;6.80;;;4.00;;
75025;SDS011;63591;50.080;8.286;2023-01-29T01:44:48;6.93;;;3.77;;
75025;SDS011;63591;50.080;8.286;2023-01-29T01:47:11;6.57;;;3.88;;
75025;SDS011;63591;50.080;8.286;2023-01-29T01:49:36;7.63;;;3.80;;
75025;SDS011;63591;50.080;8.286;2023-01-29T01:52:02;6.95;;;3.85;;
75025;SDS011;63591;50.080;8.286;2023-01-29T01:54:29;6.40;;;3.67;;
75025;SDS011;63591;50.080;8.286;2023-01-29T01:57:06;6.05;;;3.70;;
75025;SDS011;63591;50.080;8.286;2023-01-29T01:59:40;7.20;;;3.60;;
75025;SDS011;63591;50.080;8.286;2023-01-29T02:02:10;5.80;;;3.72;;
75025;SDS011;63591;50.080;8.286;2023-01-29T02:04:54;6.10;;;3.50;;
75025;SDS011;63591;50.080;8.286;2023-01-29T02:07:44;6.32;;;3.70;;
75025;SDS011;63591;50.080;8.286;2023-01-29T02:10:31;6.60;;;3.50;;
75025;SDS011;63591;50.080;8.286;2023-01-29T02:13:03;6.95;;;4.00;;
75025;SDS011;63591;50.080;8.286;2023-01-29T02:15:30;6.90;;;3.90;;
75025;SDS011;63591;50.080;8.286;2023-01-29T02:17:55;6.00;;;3.67;;
75025;SDS011;63591;50.080;8.286;2023-01-29T02:20:22;7.60;;;3.97;;
75025;SDS011;63591;50.080;8.286;2023-01-29T02:25:28;6.65;;;3.85;;
75025;SDS011;63591;50.080;8.286;2023-01-29T02:28:24;6.80;;;3.75;;
75025;SDS011;63591;50.080;8.286;2023-01-29T02:31:11;6.45;;;4.32;;
75025;SDS011;63591;50.080;8.286;2023-01-29T02:36:45;6.60;;;3.90;;
75025;SDS011;63591;50.080;8.286;2023-01-29T02:39:21;7.22;;;4.70;;
75025;SDS011;63591;50.080;8.286;2023-01-29T02:42:00;6.75;;;4.07;;
75025;SDS011;63591;50.080;8.286;2023-01-29T03:01:16;7.35;;;4.32;;
75025;SDS011;63591;50.080;8.286;2023-01-29T03:03:47;6.88;;;3.90;;
75025;SDS011;63591;50.080;8.286;2023-01-29T03:06:17;7.63;;;4.20;;
75025;SDS011;63591;50.080;8.286;2023-01-29T03:09:00;7.88;;;4.45;;
75025;SDS011;63591;50.080;8.286;2023-01-29T03:11:31;7.30;;;3.80;;
75025;SDS011;63591;50.080;8.286;2023-01-29T03:14:03;7.18;;;3.90;;
75025;SDS011;63591;50.080;8.286;2023-01-29T03:16:49;7.45;;;4.15;;
75025;SDS011;63591;50.080;8.286;2023-01-29T03:19:19;6.72;;;3.90;;
75025;SDS011;63591;50.080;8.286;2023-01-29T03:21:54;6.45;;;4.07;;
75025;SDS011;63591;50.080;8.286;2023-01-29T03:24:28;7.10;;;4.07;;
75025;SDS011;63591;50.080;8.286;2023-01-29T03:27:18;6.43;;;3.92;;
75025;SDS011;63591;50.080;8.286;2023-01-29T03:30:05;6.65;;;3.90;;
75025;SDS011;63591;50.080;8.286;2023-01-29T03:32:53;5.82;;;4.00;;
75025;SDS011;63591;50.080;8.286;2023-01-29T03:35:22;6.43;;;3.75;;
75025;SDS011;63591;50.080;8.286;2023-01-29T03:38:10;7.30;;;4.38;;
75025;SDS011;63591;50.080;8.286;2023-01-29T03:40:38;6.88;;;4.00;;
75025;SDS011;63591;50.080;8.286;2023-01-29T03:46:10;7.68;;;3.90;;
75025;SDS011;63591;50.080;8.286;2023-01-29T03:49:02;6.72;;;4.35;;
75025;SDS011;63591;50.080;8.286;2023-01-29T03:51:46;6.22;;;3.72;;
75025;SDS011;63591;50.080;8.286;2023-01-29T03:55:00;6.70;;;3.95;;
75025;SDS011;63591;50.080;8.286;2023-01-29T04:00:21;6.68;;;4.18;;
75025;SDS011;63591;50.080;8.286;2023-01-29T04:05:46;8.40;;;4.10;;
75025;SDS011;63591;50.080;8.286;2023-01-29T04:08:19;6.82;;;4.35;;
75025;SDS011;63591;50.080;8.286;2023-01-29T04:10:51;8.20;;;4.05;;
75025;SDS011;63591;50.080;8.286;2023-01-29T04:13:21;6.40;;;4.20;;
75025;SDS011;63591;50.080;8.286;2023-01-29T04:15:49;6.65;;;4.15;;
75025;SDS011;63591;50.080;8.286;2023-01-29T04:18:20;6.88;;;4.38;;
75025;SDS011;63591;50.080;8.286;2023-01-29T04:20:45;7.30;;;4.35;;
75025;SDS011;63591;50.080;8.286;2023-01-29T04:23:24;7.68;;;4.32;;
75025;SDS011;63591;50.080;8.286;2023-01-29T04:26:00;8.35;;;4.32;;
75025;SDS011;63591;50.080;8.286;2023-01-29T04:31:33;6.97;;;4.50;;
75025;SDS011;63591;50.080;8.286;2023-01-29T04:34:17;7.57;;;4.40;;
75025;SDS011;63591;50.080;8.286;2023-01-29T04:37:20;7.28;;;4.50;;
75025;SDS011;63591;50.080;8.286;2023-01-29T04:42:30;6.63;;;4.32;;
75025;SDS011;63591;50.080;8.286;2023-01-29T04:45:01;6.93;;;4.30;;
75025;SDS011;63591;50.080;8.286;2023-01-29T04:47:46;7.30;;;4.50;;
75025;SDS011;63591;50.080;8.286;2023-01-29T04:52:53;7.00;;;4.22;;
75025;SDS011;63591;50.080;8.286;2023-01-29T04:55:30;7.68;;;4.60;;
75025;SDS011;63591;50.080;8.286;2023-01-29T05:00:57;6.70;;;4.10;;
75025;SDS011;63591;50.080;8.286;2023-01-29T05:03:25;7.90;;;4.50;;
75025;SDS011;63591;50.080;8.286;2023-01-29T05:05:51;9.35;;;4.82;;
75025;SDS011;63591;50.080;8.286;2023-01-29T05:08:20;7.63;;;4.80;;
75025;SDS011;63591;50.080;8.286;2023-01-29T05:10:49;8.10;;;4.33;;
75025;SDS011;63591;50.080;8.286;2023-01-29T05:13:17;7.22;;;4.38;;
75025;SDS011;63591;50.080;8.286;2023-01-29T05:18:19;8.38;;;4.50;;
75025;SDS011;63591;50.080;8.286;2023-01-29T05:20:44;7.73;;;4.57;;
75025;SDS011;63591;50.080;8.286;2023-01-29T05:23:16;7.97;;;4.50;;
75025;SDS011;63591;50.080;8.286;2023-01-29T05:25:43;7.72;;;4.40;;
75025;SDS011;63591;50.080;8.286;2023-01-29T05:28:09;8.07;;;4.95;;
75025;SDS011;63591;50.080;8.286;2023-01-29T05:30:50;7.68;;;4.35;;
75025;SDS011;63591;50.080;8.286;2023-01-29T05:33:19;7.30;;;4.57;;
75025;SDS011;63591;50.080;8.286;2023-01-29T05:35:46;7.63;;;4.32;;
75025;SDS011;63591;50.080;8.286;2023-01-29T05:38:12;7.72;;;4.75;;
75025;SDS011;63591;50.080;8.286;2023-01-29T05:40:38;6.80;;;4.30;;
75025;SDS011;63591;50.080;8.286;2023-01-29T05:43:05;7.47;;;4.40;;
75025;SDS011;63591;50.080;8.286;2023-01-29T05:45:38;7.97;;;4.63;;
75025;SDS011;63591;50.080;8.286;2023-01-29T05:48:04;7.03;;;4.33;;
75025;SDS011;63591;50.080;8.286;2023-01-29T05:50:29;7.03;;;4.63;;
75025;SDS011;63591;50.080;8.286;2023-01-29T05:52:58;7.65;;;4.40;;
75025;SDS011;63591;50.080;8.286;2023-01-29T05:55:26;7.18;;;4.28;;
75025;SDS011;63591;50.080;8.286;2023-01-29T05:57:53;6.60;;;4.22;;
75025;SDS011;63591;50.080;8.286;2023-01-29T06:00:19;7.22;;;4.25;;
75025;SDS011;63591;50.080;8.286;2023-01-29T06:02:44;7.97;;;4.80;;
75025;SDS011;63591;50.080;8.286;2023-01-29T06:05:10;7.32;;;4.40;;
75025;SDS011;63591;50.080;8.286;2023-01-29T06:07:35;7.97;;;4.50;;
75025;SDS011;63591;50.080;8.286;2023-01-29T06:10:01;7.80;;;4.63;;
75025;SDS011;63591;50.080;8.286;2023-01-29T06:12:27;7.50;;;4.50;;
75025;SDS011;63591;50.080;8.286;2023-01-29T06:14:52;7.88;;;4.65;;
75025;SDS011;63591;50.080;8.286;2023-01-29T06:17:18;7.60;;;4.30;;
75025;SDS011;63591;50.080;8.286;2023-01-29T06:19:43;7.10;;;4.60;;
75025;SDS011;63591;50.080;8.286;2023-01-29T06:22:08;7.13;;;4.23;;
75025;SDS011;63591;50.080;8.286;2023-01-29T06:24:35;6.90;;;4.28;;
75025;SDS011;63591;50.080;8.286;2023-01-29T06:27:00;6.85;;;4.32;;
75025;SDS011;63591;50.080;8.286;2023-01-29T06:29:26;7.67;;;4.50;;
75025;SDS011;63591;50.080;8.286;2023-01-29T06:31:51;7.15;;;4.25;;
75025;SDS011;63591;50.080;8.286;2023-01-29T06:34:16;7.75;;;4.45;;
75025;SDS011;63591;50.080;8.286;2023-01-29T06:36:41;7.13;;;4.00;;
75025;SDS011;63591;50.080;8.286;2023-01-29T06:39:07;7.20;;;4.27;;
75025;SDS011;63591;50.080;8.286;2023-01-29T06:41:33;9.43;;;4.30;;
75025;SDS011;63591;50.080;8.286;2023-01-29T06:43:58;7.57;;;4.20;;
75025;SDS011;63591;50.080;8.286;2023-01-29T06:46:24;6.90;;;4.10;;
75025;SDS011;63591;50.080;8.286;2023-01-29T06:48:49;7.00;;;4.50;;
75025;SDS011;63591;50.080;8.286;2023-01-29T06:51:14;8.15;;;4.18;;
75025;SDS011;63591;50.080;8.286;2023-01-29T06:53:40;8.07;;;4.50;;
75025;SDS011;63591;50.080;8.286;2023-01-29T06:56:05;7.27;;;4.27;;
75025;SDS011;63591;50.080;8.286;2023-01-29T06:58:32;8.20;;;4.43;;
75025;SDS011;63591;50.080;8.286;2023-01-29T07:03:29;7.55;;;4.90;;
75025;SDS011;63591;50.080;8.286;2023-01-29T07:05:55;7.03;;;4.60;;
75025;SDS011;63591;50.080;8.286;2023-01-29T07:08:20;8.03;;;4.80;;
75025;SDS011;63591;50.080;8.286;2023-01-29T07:10:46;8.02;;;4.95;;
75025;SDS011;63591;50.080;8.286;2023-01-29T07:13:13;8.90;;;4.95;;
75025;SDS011;63591;50.080;8.286;2023-01-29T07:15:38;8.45;;;5.10;;
75025;SDS011;63591;50.080;8.286;2023-01-29T07:18:03;8.30;;;5.10;;
75025;SDS011;63591;50.080;8.286;2023-01-29T07:20:36;8.30;;;5.20;;
75025;SDS011;63591;50.080;8.286;2023-01-29T07:23:02;8.05;;;5.15;;
75025;SDS011;63591;50.080;8.286;2023-01-29T07:25:27;8.25;;;5.18;;
75025;SDS011;63591;50.080;8.286;2023-01-29T07:27:54;8.93;;;5.50;;
75025;SDS011;63591;50.080;8.286;2023-01-29T07:30:19;9.52;;;5.40;;
75025;SDS011;63591;50.080;8.286;2023-01-29T07:32:45;9.20;;;5.40;;
75025;SDS011;63591;50.080;8.286;2023-01-29T07:35:10;8.47;;;5.20;;
75025;SDS011;63591;50.080;8.286;2023-01-29T07:37:35;8.53;;;5.50;;
75025;SDS011;63591;50.080;8.286;2023-01-29T07:40:01;10.27;;;5.80;;
75025;SDS011;63591;50.080;8.286;2023-01-29T07:42:27;9.75;;;5.80;;
75025;SDS011;63591;50.080;8.286;2023-01-29T07:44:53;9.50;;;5.93;;
75025;SDS011;63591;50.080;8.286;2023-01-29T07:47:18;8.37;;;5.40;;
75025;SDS011;63591;50.080;8.286;2023-01-29T07:49:43;8.83;;;5.50;;
75025;SDS011;63591;50.080;8.286;2023-01-29T07:52:09;9.07;;;5.88;;
75025;SDS011;63591;50.080;8.286;2023-01-29T07:54:34;10.55;;;5.68;;
75025;SDS011;63591;50.080;8.286;2023-01-29T07:56:59;9.53;;;5.67;;
75025;SDS011;63591;50.080;8.286;2023-01-29T07:59:24;8.63;;;5.73;;
75025;SDS011;63591;50.080;8.286;2023-01-29T08:01:50;9.80;;;6.30;;
75025;SDS011;63591;50.080;8.286;2023-01-29T08:04:15;9.63;;;6.13;;
75025;SDS011;63591;50.080;8.286;2023-01-29T08:06:40;10.03;;;5.80;;
75025;SDS011;63591;50.080;8.286;2023-01-29T08:09:06;9.00;;;5.47;;
75025;SDS011;63591;50.080;8.286;2023-01-29T08:11:32;9.65;;;5.70;;
75025;SDS011;63591;50.080;8.286;2023-01-29T08:13:57;8.70;;;5.60;;
75025;SDS011;63591;50.080;8.286;2023-01-29T08:16:23;8.93;;;5.70;;
75025;SDS011;63591;50.080;8.286;2023-01-29T08:18:48;9.60;;;5.80;;
75025;SDS011;63591;50.080;8.286;2023-01-29T08:21:13;10.07;;;6.50;;
75025;SDS011;63591;50.080;8.286;2023-01-29T08:23:39;9.52;;;6.13;;
75025;SDS011;63591;50.080;8.286;2023-01-29T08:26:12;9.67;;;6.00;;
75025;SDS011;63591;50.080;8.286;2023-01-29T08:28:38;10.27;;;6.32;;
75025;SDS011;63591;50.080;8.286;2023-01-29T08:31:03;10.10;;;6.30;;
75025;SDS011;63591;50.080;8.286;2023-01-29T08:33:29;10.48;;;6.57;;
75025;SDS011;63591;50.080;8.286;2023-01-29T08:35:54;11.07;;;6.60;;
75025;SDS011;63591;50.080;8.286;2023-01-29T08:38:20;9.90;;;5.53;;
75025;SDS011;63591;50.080;8.286;2023-01-29T08:40:45;10.70;;;6.40;;
75025;SDS011;63591;50.080;8.286;2023-01-29T08:43:11;9.93;;;6.22;;
75025;SDS011;63591;50.080;8.286;2023-01-29T08:45:39;10.50;;;5.97;;
75025;SDS011;63591;50.080;8.286;2023-01-29T08:48:06;10.15;;;6.38;;
75025;SDS011;63591;50.080;8.286;2023-01-29T08:50:32;9.85;;;6.57;;
75025;SDS011;63591;50.080;8.286;2023-01-29T08:52:59;10.98;;;6.88;;
75025;SDS011;63591;50.080;8.286;2023-01-29T08:55:26;10.00;;;6.60;;
75025;SDS011;63591;50.080;8.286;2023-01-29T08:57:52;10.27;;;6.13;;
75025;SDS011;63591;50.080;8.286;2023-01-29T09:00:18;11.05;;;6.97;;
75025;SDS011;63591;50.080;8.286;2023-01-29T09:02:43;10.43;;;7.10;;
75025;SDS011;63591;50.080;8.286;2023-01-29T09:05:09;10.80;;;6.80;;
75025;SDS011;63591;50.080;8.286;2023-01-29T09:07:34;10.40;;;6.40;;
75025;SDS011;63591;50.080;8.286;2023-01-29T09:10:00;9.82;;;6.32;;
75025;SDS011;63591;50.080;8.286;2023-01-29T09:12:25;10.88;;;6.68;;
75025;SDS011;63591;50.080;8.286;2023-01-29T09:14:50;9.80;;;5.70;;
75025;SDS011;63591;50.080;8.286;2023-01-29T09:17:16;9.53;;;5.50;;
75025;SDS011;63591;50.080;8.286;2023-01-29T09:19:41;8.03;;;5.30;;
75025;SDS011;63591;50.080;8.286;2023-01-29T09:22:06;8.00;;;5.33;;
75025;SDS011;63591;50.080;8.286;2023-01-29T09:24:31;9.30;;;5.30;;
75025;SDS011;63591;50.080;8.286;2023-01-29T09:26:58;8.32;;;5.00;;
75025;SDS011;63591;50.080;8.286;2023-01-29T09:29:24;8.98;;;5.25;;
75025;SDS011;63591;50.080;8.286;2023-01-29T09:31:49;8.17;;;4.40;;
75025;SDS011;63591;50.080;8.286;2023-01-29T09:34:15;8.43;;;4.83;;
75025;SDS011;63591;50.080;8.286;2023-01-29T09:36:40;7.70;;;4.57;;
75025;SDS011;63591;50.080;8.286;2023-01-29T09:39:05;6.63;;;4.40;;
75025;SDS011;63591;50.080;8.286;2023-01-29T09:41:34;8.00;;;4.60;;
75025;SDS011;63591;50.080;8.286;2023-01-29T09:44:02;8.13;;;4.47;;
75025;SDS011;63591;50.080;8.286;2023-01-29T09:46:41;7.63;;;4.50;;
75025;SDS011;63591;50.080;8.286;2023-01-29T09:49:42;7.63;;;4.90;;
75025;SDS011;63591;50.080;8.286;2023-01-29T09:55:03;8.45;;;4.90;;
75025;SDS011;63591;50.080;8.286;2023-01-29T09:57:47;9.35;;;5.25;;
75025;SDS011;63591;50.080;8.286;2023-01-29T10:00:23;8.45;;;4.90;;
75025;SDS011;63591;50.080;8.286;2023-01-29T10:03:09;7.93;;;5.20;;
75025;SDS011;63591;50.080;8.286;2023-01-29T10:08:17;8.27;;;4.80;;
75025;SDS011;63591;50.080;8.286;2023-01-29T10:10:59;8.38;;;4.75;;
75025;SDS011;63591;50.080;8.286;2023-01-29T10:16:14;9.93;;;5.33;;
75025;SDS011;63591;50.080;8.286;2023-01-29T10:18:52;9.93;;;5.95;;
75025;SDS011;63591;50.080;8.286;2023-01-29T10:21:27;9.60;;;5.93;;
75025;SDS011;63591;50.080;8.286;2023-01-29T10:27:17;11.07;;;6.05;;
75025;SDS011;63591;50.080;8.286;2023-01-29T10:29:43;10.35;;;6.50;;
75025;SDS011;63591;50.080;8.286;2023-01-29T10:32:14;11.13;;;7.00;;
75025;SDS011;63591;50.080;8.286;2023-01-29T10:34:50;10.07;;;6.43;;
75025;SDS011;63591;50.080;8.286;2023-01-29T10:37:21;11.30;;;6.47;;
75025;SDS011;63591;50.080;8.286;2023-01-29T10:39:50;11.95;;;6.82;;
75025;SDS011;63591;50.080;8.286;2023-01-29T10:42:26;9.20;;;6.00;;
75025;SDS011;63591;50.080;8.286;2023-01-29T10:58:32;8.18;;;4.80;;
75025;SDS011;63591;50.080;8.286;2023-01-29T11:01:02;8.23;;;4.45;;
75025;SDS011;63591;50.080;8.286;2023-01-29T11:03:31;8.93;;;4.83;;
75025;SDS011;63591;50.080;8.286;2023-01-29T11:11:56;8.40;;;4.93;;
75025;SDS011;63591;50.080;8.286;2023-01-29T11:14:30;7.65;;;4.85;;
75025;SDS011;63591;50.080;8.286;2023-01-29T11:17:17;8.20;;;4.85;;
75025;SDS011;63591;50.080;8.286;2023-01-29T11:19:44;8.57;;;5.05;;
75025;SDS011;63591;50.080;8.286;2023-01-29T11:22:16;10.85;;;5.40;;
75025;SDS011;63591;50.080;8.286;2023-01-29T11:24:44;8.90;;;4.93;;
75025;SDS011;63591;50.080;8.286;2023-01-29T11:27:13;9.60;;;4.85;;
75025;SDS011;63591;50.080;8.286;2023-01-29T11:29:46;8.23;;;5.25;;
75025;SDS011;63591;50.080;8.286;2023-01-29T11:32:31;8.60;;;5.30;;
75025;SDS011;63591;50.080;8.286;2023-01-29T11:35:00;8.65;;;5.47;;
75025;SDS011;63591;50.080;8.286;2023-01-29T11:37:32;7.90;;;5.00;;
75025;SDS011;63591;50.080;8.286;2023-01-29T11:39:57;8.68;;;5.10;;
75025;SDS011;63591;50.080;8.286;2023-01-29T11:42:23;7.97;;;4.93;;
75025;SDS011;63591;50.080;8.286;2023-01-29T11:44:50;8.35;;;5.05;;
75025;SDS011;63591;50.080;8.286;2023-01-29T11:47:17;7.57;;;4.83;;
75025;SDS011;63591;50.080;8.286;2023-01-29T11:49:45;8.88;;;5.15;;
75025;SDS011;63591;50.080;8.286;2023-01-29T11:52:14;8.07;;;5.10;;
75025;SDS011;63591;50.080;8.286;2023-01-29T11:54:55;8.55;;;5.10;;
75025;SDS011;63591;50.080;8.286;2023-01-29T11:57:33;7.70;;;5.10;;
75025;SDS011;63591;50.080;8.286;2023-01-29T12:00:03;8.15;;;5.20;;
75025;SDS011;63591;50.080;8.286;2023-01-29T12:02:32;7.47;;;4.35;;
75025;SDS011;63591;50.080;8.286;2023-01-29T12:05:06;7.60;;;3.90;;
75025;SDS011;63591;50.080;8.286;2023-01-29T12:07:40;8.27;;;4.93;;
75025;SDS011;63591;50.080;8.286;2023-01-29T12:10:26;8.30;;;4.85;;
75025;SDS011;63591;50.080;8.286;2023-01-29T12:13:04;6.68;;;4.40;;
75025;SDS011;63591;50.080;8.286;2023-01-29T12:15:40;6.80;;;4.05;;
75025;SDS011;63591;50.080;8.286;2023-01-29T12:20:46;7.50;;;4.47;;
75025;SDS011;63591;50.080;8.286;2023-01-29T12:26:12;7.03;;;4.40;;
75025;SDS011;63591;50.080;8.286;2023-01-29T12:36:57;8.00;;;4.60;;
75025;SDS011;63591;50.080;8.286;2023-01-29T12:39:28;8.90;;;5.55;;
75025;SDS011;63591;50.080;8.286;2023-01-29T12:41:58;8.73;;;5.33;;
75025;SDS011;63591;50.080;8.286;2023-01-29T12:44:33;8.65;;;5.30;;
75025;SDS011;63591;50.080;8.286;2023-01-29T12:47:06;9.02;;;5.28;;
75025;SDS011;63591;50.080;8.286;2023-01-29T12:49:36;9.68;;;5.53;;
75025;SDS011;63591;50.080;8.286;2023-01-29T12:54:32;8.85;;;5.28;;
75025;SDS011;63591;50.080;8.286;2023-01-29T12:56:59;8.85;;;5.57;;
75025;SDS011;63591;50.080;8.286;2023-01-29T12:59:32;10.32;;;5.40;;
75025;SDS011;63591;50.080;8.286;2023-01-29T13:02:22;9.52;;;5.68;;
75025;SDS011;63591;50.080;8.286;2023-01-29T13:05:02;8.10;;;5.15;;
75025;SDS011;63591;50.080;8.286;2023-01-29T13:07:50;10.00;;;5.72;;
75025;SDS011;63591;50.080;8.286;2023-01-29T13:10:23;10.73;;;5.88;;
75025;SDS011;63591;50.080;8.286;2023-01-29T13:12:56;9.95;;;5.45;;
75025;SDS011;63591;50.080;8.286;2023-01-29T13:15:34;7.95;;;5.10;;
75025;SDS011;63591;50.080;8.286;2023-01-29T13:18:09;8.95;;;5.60;;
75025;SDS011;63591;50.080;8.286;2023-01-29T13:20:56;8.85;;;5.60;;
75025;SDS011;63591;50.080;8.286;2023-01-29T13:23:33;9.07;;;5.40;;
75025;SDS011;63591;50.080;8.286;2023-01-29T13:26:01;8.30;;;5.00;;
75025;SDS011;63591;50.080;8.286;2023-01-29T13:28:27;7.75;;;4.68;;
75025;SDS011;63591;50.080;8.286;2023-01-29T13:34:10;9.60;;;5.28;;
75025;SDS011;63591;50.080;8.286;2023-01-29T13:36:40;8.27;;;5.13;;
75025;SDS011;63591;50.080;8.286;2023-01-29T13:39:13;9.18;;;5.22;;
75025;SDS011;63591;50.080;8.286;2023-01-29T13:41:52;9.95;;;5.57;;
75025;SDS011;63591;50.080;8.286;2023-01-29T13:46:56;8.52;;;5.40;;
75025;SDS011;63591;50.080;8.286;2023-01-29T13:49:43;7.95;;;5.00;;
75025;SDS011;63591;50.080;8.286;2023-01-29T13:55:08;8.80;;;5.22;;
75025;SDS011;63591;50.080;8.286;2023-01-29T14:02:44;7.80;;;4.85;;
75025;SDS011;63591;50.080;8.286;2023-01-29T14:10:40;7.25;;;4.35;;
75025;SDS011;63591;50.080;8.286;2023-01-29T14:15:45;8.63;;;4.82;;
75025;SDS011;63591;50.080;8.286;2023-01-29T14:19:18;8.82;;;4.80;;
75025;SDS011;63591;50.080;8.286;2023-01-29T14:21:27;7.77;;;4.50;;
75025;SDS011;63591;50.080;8.286;2023-01-29T14:34:05;8.40;;;4.63;;
75025;SDS011;63591;50.080;8.286;2023-01-29T14:36:42;7.18;;;4.60;;
75025;SDS011;63591;50.080;8.286;2023-01-29T14:39:30;7.93;;;4.80;;
75025;SDS011;63591;50.080;8.286;2023-01-29T14:42:00;7.28;;;4.30;;
75025;SDS011;63591;50.080;8.286;2023-01-29T14:49:57;6.88;;;3.97;;
75025;SDS011;63591;50.080;8.286;2023-01-29T14:52:25;7.25;;;4.10;;
75025;SDS011;63591;50.080;8.286;2023-01-29T14:54:58;5.93;;;3.70;;
75025;SDS011;63591;50.080;8.286;2023-01-29T14:57:27;7.85;;;4.07;;
75025;SDS011;63591;50.080;8.286;2023-01-29T15:00:01;7.33;;;3.90;;
75025;SDS011;63591;50.080;8.286;2023-01-29T15:02:39;6.72;;;4.15;;
75025;SDS011;63591;50.080;8.286;2023-01-29T15:05:09;6.13;;;3.83;;
75025;SDS011;63591;50.080;8.286;2023-01-29T15:07:46;7.80;;;4.10;;
75025;SDS011;63591;50.080;8.286;2023-01-29T15:10:18;7.20;;;4.25;;
75025;SDS011;63591;50.080;8.286;2023-01-29T15:15:33;8.38;;;4.15;;
75025;SDS011;63591;50.080;8.286;2023-01-29T15:18:03;8.18;;;4.35;;
75025;SDS011;63591;50.080;8.286;2023-01-29T15:23:02;7.53;;;4.25;;
75025;SDS011;63591;50.080;8.286;2023-01-29T15:25:45;7.27;;;4.20;;
75025;SDS011;63591;50.080;8.286;2023-01-29T15:28:13;7.97;;;4.40;;
75025;SDS011;63591;50.080;8.286;2023-01-29T15:30:39;7.30;;;4.30;;
75025;SDS011;63591;50.080;8.286;2023-01-29T15:33:07;7.40;;;4.18;;
75025;SDS011;63591;50.080;8.286;2023-01-29T15:35:37;7.60;;;4.63;;
75025;SDS011;63591;50.080;8.286;2023-01-29T15:45:48;7.18;;;4.18;;
75025;SDS011;63591;50.080;8.286;2023-01-29T15:48:16;7.37;;;4.23;;
75025;SDS011;63591;50.080;8.286;2023-01-29T15:50:44;7.75;;;4.40;;
75025;SDS011;63591;50.080;8.286;2023-01-29T15:53:14;7.45;;;4.45;;
75025;SDS011;63591;50.080;8.286;2023-01-29T15:55:43;7.68;;;4.32;;
75025;SDS011;63591;50.080;8.286;2023-01-29T15:58:13;8.60;;;4.30;;
75025;SDS011;63591;50.080;8.286;2023-01-29T16:00:52;8.15;;;4.32;;
75025;SDS011;63591;50.080;8.286;2023-01-29T16:03:20;6.85;;;4.28;;
75025;SDS011;63591;50.080;8.286;2023-01-29T16:05:47;7.47;;;4.30;;
75025;SDS011;63591;50.080;8.286;2023-01-29T16:08:14;6.60;;;4.20;;
75025;SDS011;63591;50.080;8.286;2023-01-29T16:10:40;7.30;;;4.28;;
75025;SDS011;63591;50.080;8.286;2023-01-29T16:13:10;7.47;;;4.00;;
75025;SDS011;63591;50.080;8.286;2023-01-29T16:15:56;6.95;;;4.00;;
75025;SDS011;63591;50.080;8.286;2023-01-29T16:18:24;6.47;;;3.58;;
75025;SDS011;63591;50.080;8.286;2023-01-29T16:20:53;6.55;;;3.83;;
75025;SDS011;63591;50.080;8.286;2023-01-29T16:23:34;7.10;;;3.83;;
75025;SDS011;63591;50.080;8.286;2023-01-29T16:26:05;7.05;;;4.28;;
75025;SDS011;63591;50.080;8.286;2023-01-29T16:28:42;7.25;;;4.30;;
75025;SDS011;63591;50.080;8.286;2023-01-29T16:31:08;6.80;;;3.83;;
75025;SDS011;63591;50.080;8.286;2023-01-29T16:33:36;7.22;;;3.67;;
75025;SDS011;63591;50.080;8.286;2023-01-29T16:36:03;6.80;;;3.85;;
75025;SDS011;63591;50.080;8.286;2023-01-29T16:38:40;6.75;;;4.10;;
75025;SDS011;63591;50.080;8.286;2023-01-29T16:41:15;7.05;;;4.28;;
75025;SDS011;63591;50.080;8.286;2023-01-29T16:43:57;6.90;;;4.15;;
75025;SDS011;63591;50.080;8.286;2023-01-29T16:49:01;7.40;;;4.00;;
75025;SDS011;63591;50.080;8.286;2023-01-29T16:51:46;6.95;;;4.10;;
75025;SDS011;63591;50.080;8.286;2023-01-29T16:54:12;7.53;;;4.27;;
75025;SDS011;63591;50.080;8.286;2023-01-29T16:56:47;6.10;;;4.00;;
75025;SDS011;63591;50.080;8.286;2023-01-29T16:59:23;6.28;;;4.05;;
75025;SDS011;63591;50.080;8.286;2023-01-29T17:01:55;8.65;;;4.43;;
75025;SDS011;63591;50.080;8.286;2023-01-29T17:04:21;7.07;;;4.57;;
75025;SDS011;63591;50.080;8.286;2023-01-29T17:06:47;7.93;;;4.67;;
75025;SDS011;63591;50.080;8.286;2023-01-29T17:09:19;9.50;;;4.63;;
75025;SDS011;63591;50.080;8.286;2023-01-29T17:11:47;8.05;;;5.13;;
75025;SDS011;63591;50.080;8.286;2023-01-29T17:14:20;8.88;;;5.70;;
75025;SDS011;63591;50.080;8.286;2023-01-29T17:16:49;10.55;;;6.55;;
75025;SDS011;63591;50.080;8.286;2023-01-29T17:19:17;10.98;;;7.45;;
75025;SDS011;63591;50.080;8.286;2023-01-29T17:21:44;11.02;;;8.00;;
75025;SDS011;63591;50.080;8.286;2023-01-29T17:24:09;10.90;;;7.43;;
75025;SDS011;63591;50.080;8.286;2023-01-29T17:26:35;11.07;;;7.57;;
75025;SDS011;63591;50.080;8.286;2023-01-29T17:29:01;10.70;;;7.57;;
75025;SDS011;63591;50.080;8.286;2023-01-29T17:31:26;11.63;;;7.50;;
75025;SDS011;63591;50.080;8.286;2023-01-29T17:33:51;10.17;;;7.07;;